Time;durP1;ratioP1;P1;durP2;ratioP2;P2;SDS_P1;SDS_P2;PMS_P1;PMS_P2;Temp;Humidity;BMP_temperature;BMP_pressure;BME280_temperature;BME280_humidity;BME280_pressure;Samples;Min_cycle;Max_cycle;Signal;HPM_P1;HPM_P2
2022/08/14 00:00:18;;;;;;;;;13.20;12.60;;;;;22.32;39.33;99560.63;5125265;27;8936;-62
2022/08/14 00:02:46;;;;;;;;;12.00;12.00;;;;;22.27;39.54;99563.94;5133148;27;9457;-61
2022/08/14 00:05:14;;;;;;;;;10.80;10.40;;;;;22.22;39.58;99560.16;5120010;27;8824;-62
2022/08/14 00:07:42;;;;;;;;;12.20;12.20;;;;;22.16;39.89;99561.00;5119868;28;8858;-62
2022/08/14 00:10:13;;;;;;;;;12.80;12.20;;;;;22.10;40.44;99556.38;5130294;27;8896;-62
2022/08/14 00:13:00;;;;;;;;;6.20;6.20;;;;;22.05;40.59;99548.00;5139787;27;8840;-62
2022/08/14 00:15:34;;;;;;;;;10.80;8.80;;;;;22.01;40.41;99546.78;5139895;27;8832;-62
2022/08/14 00:18:10;;;;;;;;;12.40;12.40;;;;;21.96;40.62;99541.13;5139817;27;8825;-62
2022/08/14 00:20:41;;;;;;;;;12.80;12.80;;;;;21.92;40.32;99539.84;5139074;27;8878;-61
2022/08/14 00:23:09;;;;;;;;;8.60;8.40;;;;;21.87;40.74;99536.91;5138031;27;8826;-62
2022/08/14 00:25:43;;;;;;;;;13.80;12.80;;;;;21.82;40.60;99536.69;5138054;27;8814;-61
2022/08/14 00:28:31;;;;;;;;;12.20;12.20;;;;;21.78;40.64;99535.44;5128513;27;8851;-61
2022/08/14 00:31:02;;;;;;;;;11.00;9.00;;;;;21.72;40.77;99522.69;5120459;27;8894;-62
2022/08/14 00:33:31;;;;;;;;;11.80;11.20;;;;;21.68;40.93;99527.69;5118231;27;8808;-61
2022/08/14 00:36:18;;;;;;;;;12.00;12.00;;;;;21.64;41.16;99517.41;5106020;28;9503;-62
2022/08/14 00:39:06;;;;;;;;;14.60;12.80;;;;;21.60;41.31;99516.97;5113397;28;8840;-62
2022/08/14 00:41:35;;;;;;;;;12.00;12.00;;;;;21.59;41.01;99519.88;5117593;28;8820;-62
2022/08/14 00:44:05;;;;;;;;;14.20;12.00;;;;;21.56;40.91;99514.88;5118584;28;8832;-62
2022/08/14 00:46:34;;;;;;;;;15.80;15.60;;;;;21.59;41.18;99525.31;5118008;28;8855;-61
2022/08/14 00:49:02;;;;;;;;;13.20;13.20;;;;;21.67;41.10;99520.59;5118839;28;8843;-61
2022/08/14 00:51:32;;;;;;;;;14.20;14.20;;;;;21.74;41.11;99518.72;5118354;28;8872;-65
2022/08/14 00:54:04;;;;;;;;;12.00;12.00;;;;;21.83;41.55;99516.66;5116500;28;8808;-61
2022/08/14 00:56:47;;;;;;;;;11.60;11.60;;;;;21.87;41.26;99512.50;5118132;28;8804;-61
2022/08/14 00:59:15;;;;;;;;;12.40;11.40;;;;;21.89;41.13;99507.72;5100933;28;8836;-62
2022/08/14 01:01:43;;;;;;;;;13.00;13.00;;;;;21.90;41.17;99510.22;5098017;28;8952;-61
2022/08/14 01:04:12;;;;;;;;;11.40;11.00;;;;;21.87;41.31;99507.09;5098936;28;8807;-63
2022/08/14 01:07:00;;;;;;;;;14.20;12.40;;;;;21.78;41.45;99503.72;5098133;28;9487;-62
2022/08/14 01:09:35;;;;;;;;;8.00;8.00;;;;;21.72;41.48;99501.00;5113622;28;8827;-62
2022/08/14 01:12:03;;;;;;;;;11.20;9.00;;;;;21.65;41.43;99502.81;5097527;28;8826;-61
2022/08/14 01:14:30;;;;;;;;;15.60;12.20;;;;;21.58;41.98;99501.94;5097990;28;8871;-62
2022/08/14 01:16:58;;;;;;;;;15.00;14.60;;;;;21.51;41.76;99501.09;5098270;28;8849;-61
2022/08/14 01:22:17;;;;;;;;;12.60;11.20;;;;;21.42;42.26;99491.47;5065142;28;8837;-61
2022/08/14 01:24:45;;;;;;;;;13.60;12.20;;;;;21.36;42.28;99482.28;5098815;28;8827;-62
2022/08/14 01:27:13;;;;;;;;;15.00;12.40;;;;;21.31;42.05;99479.31;5115845;28;8816;-62
2022/08/14 01:29:41;;;;;;;;;9.00;8.80;;;;;21.28;42.28;99473.47;5097758;28;8996;-62
2022/08/14 01:32:29;;;;;;;;;11.80;11.40;;;;;21.26;42.88;99475.56;5097285;28;8838;-63
2022/08/14 01:34:56;;;;;;;;;12.80;11.80;;;;;21.22;42.41;99476.97;5096434;28;8818;-62
2022/08/14 01:37:45;;;;;;;;;12.00;11.60;;;;;21.17;42.54;99472.16;5096574;28;8857;-62
2022/08/14 01:40:23;;;;;;;;;15.00;14.20;;;;;21.12;42.98;99462.97;5096725;28;8840;-62
2022/08/14 01:42:59;;;;;;;;;11.80;11.00;;;;;21.09;42.75;99466.91;5097500;28;8903;-62
2022/08/14 01:45:29;;;;;;;;;12.20;11.00;;;;;21.04;43.05;99457.72;5096835;28;8818;-61
2022/08/14 01:48:07;;;;;;;;;12.80;11.00;;;;;21.00;43.33;99467.28;5113510;28;8840;-62
2022/08/14 01:50:40;;;;;;;;;12.80;12.00;;;;;20.95;43.11;99458.94;5116380;28;8820;-61
2022/08/14 01:53:08;;;;;;;;;13.80;13.00;;;;;20.91;43.57;99457.66;5117243;28;8808;-62
2022/08/14 01:55:38;;;;;;;;;14.00;11.80;;;;;20.89;43.44;99457.03;5117282;28;8808;-62
2022/08/14 01:58:09;;;;;;;;;13.80;12.80;;;;;20.85;43.36;99450.28;5114196;28;9500;-62
2022/08/14 02:00:51;;;;;;;;;14.20;12.40;;;;;20.81;43.78;99443.63;5098131;28;9632;-62
2022/08/14 02:03:19;;;;;;;;;14.00;12.20;;;;;20.77;43.93;99442.31;5097527;28;8829;-62
2022/08/14 02:05:48;;;;;;;;;17.00;15.00;;;;;20.74;43.81;99440.84;5112869;28;8891;-62
2022/08/14 02:08:16;;;;;;;;;15.60;14.20;;;;;20.72;43.99;99433.13;5096706;28;8846;-63
2022/08/14 02:11:22;;;;;;;;;13.60;13.20;;;;;20.69;43.44;99438.97;5108569;28;8889;-61
2022/08/14 02:13:51;;;;;;;;;13.60;12.20;;;;;20.67;44.03;99435.59;5097561;28;8810;-62
2022/08/14 02:16:19;;;;;;;;;12.25;11.50;;;;;20.66;43.77;99429.34;5103906;28;9631;-63
2022/08/14 02:18:49;;;;;;;;;11.00;11.00;;;;;20.65;43.81;99421.44;5114812;28;8816;-62
2022/08/14 02:21:17;;;;;;;;;14.00;12.00;;;;;20.60;43.86;99413.91;5101611;28;8940;-62
2022/08/14 02:23:50;;;;;;;;;16.60;14.60;;;;;20.61;44.24;99415.59;5096515;28;8818;-62
2022/08/14 02:26:20;;;;;;;;;7.00;7.00;;;;;20.65;44.26;99418.72;5106803;28;8832;-62
2022/08/14 02:28:55;;;;;;;;;14.60;14.40;;;;;20.67;44.46;99420.19;5117035;28;8839;-62
2022/08/14 02:31:31;;;;;;;;;14.80;14.00;;;;;20.69;44.41;99411.91;5099286;28;8852;-62
2022/08/14 02:34:09;;;;;;;;;14.40;14.20;;;;;20.67;44.34;99412.09;5115057;28;8817;-62
2022/08/14 02:36:48;;;;;;;;;19.00;16.80;;;;;20.65;44.42;99410.59;5133304;27;8896;-62
2022/08/14 02:39:33;;;;;;;;;15.60;14.00;;;;;20.61;44.07;99410.16;5137175;27;8841;-62
2022/08/14 02:42:02;;;;;;;;;18.75;17.00;;;;;20.61;44.75;99398.50;5137435;27;8826;-62
2022/08/14 02:44:30;;;;;;;;;15.80;13.80;;;;;20.66;44.55;99399.59;5137420;27;8817;-61
2022/08/14 02:47:07;;;;;;;;;18.60;17.80;;;;;20.71;44.21;99394.41;5117317;27;8832;-62
2022/08/14 02:49:41;;;;;;;;;14.40;13.40;;;;;20.77;44.45;99393.59;5116246;27;8820;-62
2022/08/14 02:52:09;;;;;;;;;11.20;11.00;;;;;20.82;44.67;99385.72;5116473;28;8808;-62
2022/08/14 02:54:57;;;;;;;;;16.20;14.80;;;;;20.85;44.48;99390.72;5116793;27;8856;-61
2022/08/14 02:57:25;;;;;;;;;17.00;15.40;;;;;20.80;44.87;99382.38;5136785;27;8971;-62
2022/08/14 03:00:07;;;;;;;;;13.20;11.80;;;;;20.77;45.19;99379.25;5136333;27;8817;-62
2022/08/14 03:02:36;;;;;;;;;15.00;14.00;;;;;20.71;44.81;99391.69;5136894;27;8832;-62
2022/08/14 03:05:25;;;;;;;;;14.00;13.20;;;;;20.60;45.16;99375.19;5118989;27;8824;-62
2022/08/14 03:07:53;;;;;;;;;14.60;14.40;;;;;20.51;45.29;99370.97;5137147;27;8853;-62
2022/08/14 03:10:22;;;;;;;;;18.80;17.80;;;;;20.41;45.37;99373.19;5136719;27;8818;-62
2022/08/14 03:12:58;;;;;;;;;13.40;13.20;;;;;20.32;45.80;99371.69;5136561;27;8841;-62
2022/08/14 03:15:27;;;;;;;;;14.80;14.40;;;;;20.24;45.57;99369.97;5130943;27;8958;-61
2022/08/14 03:17:54;;;;;;;;;19.00;17.60;;;;;20.18;45.98;99368.03;5124699;27;9597;-62
2022/08/14 03:20:24;;;;;;;;;15.00;13.75;;;;;20.10;46.33;99362.78;5134170;27;8806;-62
2022/08/14 03:22:52;;;;;;;;;10.00;10.00;;;;;20.04;46.10;99360.00;5135846;27;9498;-62
2022/08/14 03:25:21;;;;;;;;;14.50;14.50;;;;;20.04;46.47;99355.41;5136620;27;8886;-61
2022/08/14 03:27:49;;;;;;;;;15.50;15.50;;;;;20.04;46.23;99358.13;5121279;27;9623;-62
2022/08/14 03:30:25;;;;;;;;;16.80;15.80;;;;;20.00;46.55;99356.84;5115921;28;8804;-62
2022/08/14 03:33:07;;;;;;;;;15.25;15.25;;;;;19.95;46.20;99362.00;5116785;27;8928;-62
2022/08/14 03:35:37;;;;;;;;;16.75;16.00;;;;;19.90;46.90;99360.91;5134817;27;8840;-62
2022/08/14 03:38:24;;;;;;;;;16.75;14.00;;;;;19.85;46.80;99368.75;5135657;27;8830;-61
2022/08/14 03:41:13;;;;;;;;;14.50;13.50;;;;;19.80;46.73;99365.84;5135667;27;8826;-62
2022/08/14 03:43:41;;;;;;;;;16.00;14.00;;;;;19.75;47.04;99363.72;5136566;27;8956;-62
2022/08/14 03:46:12;;;;;;;;;17.00;14.75;;;;;19.73;46.68;99362.22;5136412;27;8817;-62
2022/08/14 03:49:01;;;;;;;;;16.25;16.25;;;;;19.71;46.92;99365.13;5135840;27;8850;-61
2022/08/14 03:51:30;;;;;;;;;7.75;7.75;;;;;19.69;46.85;99364.50;5136094;27;8814;-62
2022/08/14 03:53:58;;;;;;;;;12.50;12.50;;;;;19.67;47.35;99369.25;5136946;27;8834;-61
2022/08/14 03:56:26;;;;;;;;;18.00;17.25;;;;;19.67;46.84;99365.72;5135701;27;8825;-62
2022/08/14 03:58:54;;;;;;;;;16.50;16.50;;;;;19.67;47.12;99363.00;5136513;27;8855;-61
2022/08/14 04:01:24;;;;;;;;;15.25;13.50;;;;;19.68;47.29;99364.66;5135433;27;8890;-62
2022/08/14 04:04:08;;;;;;;;;15.75;14.75;;;;;19.67;46.94;99358.44;5132787;27;8829;-63
2022/08/14 04:06:36;;;;;;;;;17.50;16.25;;;;;19.67;46.89;99371.09;5135883;27;8828;-61
2022/08/14 04:09:14;;;;;;;;;13.75;12.00;;;;;19.65;47.17;99365.88;5120449;28;8807;-61
2022/08/14 04:11:44;;;;;;;;;13.25;12.00;;;;;19.64;47.30;99360.69;5115514;28;9499;-61
2022/08/14 04:14:12;;;;;;;;;15.25;15.25;;;;;19.62;47.19;99360.03;5115765;28;8962;-62
2022/08/14 04:16:46;;;;;;;;;18.25;15.25;;;;;19.59;47.25;99363.97;5115747;28;8832;-61
2022/08/14 04:19:16;;;;;;;;;12.75;11.50;;;;;19.58;47.46;99365.00;5116304;27;8818;-61
2022/08/14 04:21:43;;;;;;;;;16.25;16.25;;;;;19.58;47.24;99367.69;5114986;28;8844;-62
2022/08/14 04:24:30;;;;;;;;;11.50;11.00;;;;;19.60;47.43;99368.34;5116482;28;8905;-62
2022/08/14 04:27:05;;;;;;;;;17.00;16.25;;;;;19.66;47.52;99367.56;5128135;27;8833;-61
2022/08/14 04:29:37;;;;;;;;;18.25;16.75;;;;;19.68;47.11;99362.81;5135575;27;8857;-62
2022/08/14 04:32:04;;;;;;;;;16.50;15.25;;;;;19.64;47.85;99369.63;5131812;27;8830;-61
2022/08/14 04:34:52;;;;;;;;;17.75;16.25;;;;;19.55;47.70;99369.94;5133723;27;8954;-61
2022/08/14 04:45:44;;;;;;;;;16.25;14.50;;;;;19.08;48.73;99356.09;5119177;28;8855;-62
2022/08/14 04:48:19;;;;;;;;;21.00;18.75;;;;;19.01;48.84;99369.53;5118765;28;8847;-63
2022/08/14 04:51:07;;;;;;;;;16.25;15.25;;;;;18.98;48.83;99363.69;5119724;27;8866;-65
2022/08/14 04:53:35;;;;;;;;;15.50;13.25;;;;;18.97;48.89;99359.31;5138537;27;8825;-62
2022/08/14 04:56:09;;;;;;;;;19.00;16.50;;;;;18.99;48.80;99359.94;5138939;27;8848;-62
2022/08/14 04:58:57;;;;;;;;;17.75;15.75;;;;;19.05;48.80;99370.81;5118628;27;8852;-62
2022/08/14 05:01:28;;;;;;;;;13.75;10.50;;;;;19.12;48.26;99360.13;5118641;27;8828;-62
2022/08/14 05:04:07;;;;;;;;;15.75;15.75;;;;;19.20;48.25;99360.84;5118565;28;8857;-62
2022/08/14 05:06:34;;;;;;;;;15.50;14.75;;;;;19.29;48.59;99356.19;5118723;27;9486;-62
2022/08/14 05:09:06;;;;;;;;;13.75;13.00;;;;;19.39;48.42;99360.25;5125195;27;8816;-61
2022/08/14 05:11:40;;;;;;;;;24.00;18.00;;;;;19.54;48.28;99358.31;5135592;27;9459;-62
2022/08/14 05:14:07;;;;;;;;;19.25;17.25;;;;;19.70;47.63;99355.34;5134194;27;8937;-62
2022/08/14 05:16:57;;;;;;;;;13.00;12.00;;;;;19.84;47.47;99346.31;5117789;28;8871;-62
2022/08/14 05:19:28;;;;;;;;;17.50;16.25;;;;;20.01;47.71;99347.69;5118491;27;8796;-62
2022/08/14 05:21:58;;;;;;;;;19.00;16.00;;;;;20.20;46.94;99343.50;5118778;27;8862;-62
2022/08/14 05:24:44;;;;;;;;;16.50;16.50;;;;;20.36;46.91;99343.19;5117768;28;8827;-62
2022/08/14 05:27:19;;;;;;;;;15.25;14.00;;;;;20.49;46.54;99335.97;5120644;27;8827;-62
2022/08/14 05:29:50;;;;;;;;;17.75;14.50;;;;;20.62;46.63;99336.06;5137844;27;8845;-63
2022/08/14 05:32:18;;;;;;;;;18.00;17.00;;;;;20.74;46.84;99332.56;5138193;27;9579;-61
2022/08/14 05:34:46;;;;;;;;;17.40;15.00;;;;;20.87;46.83;99334.56;5136079;27;8960;-62
2022/08/14 05:37:14;;;;;;;;;18.60;13.80;;;;;20.97;46.24;99325.00;5137897;27;8895;-61
2022/08/14 05:39:42;;;;;;;;;17.60;14.80;;;;;21.08;46.36;99326.28;5119794;27;8800;-62
2022/08/14 05:42:10;;;;;;;;;16.00;15.20;;;;;21.16;46.28;99334.22;5117837;27;8808;-62
2022/08/14 05:44:48;;;;;;;;;16.60;15.00;;;;;21.26;46.40;99330.09;5116234;27;8920;-61
2022/08/14 05:47:20;;;;;;;;;15.80;15.00;;;;;21.41;46.33;99330.75;5116209;27;8883;-63
2022/08/14 05:49:48;;;;;;;;;18.00;15.00;;;;;21.53;45.79;99326.41;5115018;28;9064;-62
2022/08/14 05:52:15;;;;;;;;;20.80;17.20;;;;;21.66;46.13;99322.91;5116362;27;8926;-67
2022/08/14 05:54:45;;;;;;;;;14.00;12.80;;;;;21.77;46.08;99322.25;5115889;28;8835;-62
2022/08/14 05:57:13;;;;;;;;;15.80;15.20;;;;;21.87;45.45;99331.66;5116054;27;8832;-61
2022/08/14 05:59:42;;;;;;;;;15.00;13.20;;;;;21.98;45.50;99330.19;5116374;27;9494;-62
2022/08/14 06:02:10;;;;;;;;;19.00;17.80;;;;;22.07;45.33;99327.06;5116186;28;8820;-62
2022/08/14 06:04:38;;;;;;;;;18.40;16.20;;;;;22.18;45.46;99317.47;5116206;28;8946;-62
2022/08/14 06:07:06;;;;;;;;;14.20;12.00;;;;;22.27;45.09;99319.75;5116032;28;8823;-64
2022/08/14 06:09:35;;;;;;;;;17.40;16.40;;;;;22.37;45.08;99316.56;5134480;27;8948;-62
2022/08/14 06:12:07;;;;;;;;;17.80;17.80;;;;;22.52;44.99;99317.19;5131444;27;8816;-61
2022/08/14 06:14:35;;;;;;;;;23.00;19.60;;;;;22.69;44.44;99324.66;5099010;28;8819;-61
2022/08/14 06:17:03;;;;;;;;;16.20;13.40;;;;;22.85;44.57;99324.16;5117127;28;8913;-62
2022/08/14 06:19:30;;;;;;;;;16.40;14.80;;;;;22.98;44.19;99323.31;5115458;28;8962;-62
2022/08/14 06:21:58;;;;;;;;;15.40;14.80;;;;;23.13;44.41;99323.88;5118153;27;8924;-62
2022/08/14 06:24:26;;;;;;;;;11.60;9.00;;;;;23.24;44.22;99320.47;5117972;27;8823;-62
2022/08/14 06:27:01;;;;;;;;;20.40;18.00;;;;;23.39;43.72;99315.56;5117385;27;8836;-62
2022/08/14 06:29:31;;;;;;;;;14.60;14.20;;;;;23.54;43.85;99318.81;5134263;27;9464;-61
2022/08/14 06:32:01;;;;;;;;;18.80;16.20;;;;;23.70;43.56;99321.00;5116574;27;8823;-61
2022/08/14 06:34:49;;;;;;;;;12.00;11.60;;;;;23.87;43.49;99322.13;5117013;27;8828;-62
2022/08/14 06:37:37;;;;;;;;;17.20;17.00;;;;;24.01;43.65;99324.53;5096920;28;8860;-62
2022/08/14 06:40:08;;;;;;;;;18.40;17.00;;;;;24.11;43.01;99327.59;5078603;28;8882;-62
2022/08/14 06:42:54;;;;;;;;;13.20;11.20;;;;;24.26;43.01;99324.53;5106594;28;8888;-62
2022/08/14 06:45:22;;;;;;;;;18.40;18.20;;;;;24.37;43.24;99327.34;5115377;28;8800;-61
2022/08/14 06:47:53;;;;;;;;;22.20;18.60;;;;;24.48;42.80;99312.97;5114564;28;8843;-61
2022/08/14 06:50:21;;;;;;;;;15.40;14.80;;;;;24.57;43.12;99308.91;5115694;28;8970;-62
2022/08/14 06:52:54;;;;;;;;;18.40;18.00;;;;;24.68;42.47;99315.50;5115386;28;8876;-61
2022/08/14 06:55:22;;;;;;;;;16.40;15.60;;;;;24.78;42.78;99310.34;5115388;28;8828;-62
2022/08/14 06:57:55;;;;;;;;;18.60;15.20;;;;;24.91;42.93;99305.59;5094760;28;8849;-62
2022/08/14 07:00:24;;;;;;;;;18.00;15.60;;;;;25.03;42.54;99297.47;5095385;28;8818;-61
2022/08/14 07:05:46;;;;;;;;;19.20;17.40;;;;;25.28;42.28;99298.19;5095614;28;9042;-62
2022/08/14 07:08:26;;;;;;;;;16.00;15.60;;;;;25.37;41.89;99299.50;5102871;28;8814;-62
2022/08/14 07:10:58;;;;;;;;;17.20;16.00;;;;;25.44;42.45;99292.06;5095355;28;8912;-63
2022/08/14 07:13:26;;;;;;;;;16.00;14.20;;;;;25.56;42.16;99290.22;5095781;28;8834;-61
2022/08/14 07:15:54;;;;;;;;;20.00;18.80;;;;;25.67;42.01;99293.78;5093903;28;8813;-62
2022/08/14 07:18:24;;;;;;;;;18.40;16.60;;;;;25.79;41.70;99291.06;5094586;28;8822;-62
2022/08/14 07:20:52;;;;;;;;;17.20;16.40;;;;;25.92;41.59;99297.19;5112020;28;8942;-62
2022/08/14 07:23:22;;;;;;;;;14.80;14.80;;;;;26.06;41.70;99297.78;5113942;28;8954;-64
2022/08/14 07:25:51;;;;;;;;;16.20;16.00;;;;;26.17;41.79;99300.53;5113869;28;8842;-62
2022/08/14 07:28:19;;;;;;;;;22.60;20.40;;;;;26.29;41.25;99303.25;5103049;28;8964;-62
2022/08/14 07:30:48;;;;;;;;;21.00;19.80;;;;;26.39;41.48;99296.13;5109814;28;8949;-63
2022/08/14 07:33:18;;;;;;;;;18.00;15.40;;;;;26.47;41.15;99301.22;5107286;28;8824;-62
2022/08/14 07:35:50;;;;;;;;;14.60;14.60;;;;;26.58;41.29;99303.13;5095379;28;8955;-62
2022/08/14 07:38:26;;;;;;;;;13.60;13.60;;;;;26.71;41.16;99302.06;5106399;28;8804;-62
2022/08/14 07:41:04;;;;;;;;;18.00;16.80;;;;;26.82;40.93;99298.44;5114991;28;8847;-62
2022/08/14 07:43:41;;;;;;;;;13.20;13.00;;;;;26.87;41.16;99291.19;5115581;28;8827;-62
2022/08/14 07:46:10;;;;;;;;;19.60;17.00;;;;;26.92;41.22;99288.56;5115506;28;8862;-62
2022/08/14 07:48:38;;;;;;;;;13.40;12.60;;;;;27.00;40.72;99281.88;5106684;28;8829;-63
2022/08/14 07:51:08;;;;;;;;;18.60;17.20;;;;;27.11;40.49;99276.38;5106236;28;8943;-63
2022/08/14 07:53:37;;;;;;;;;20.00;18.80;;;;;27.23;40.28;99273.63;5113499;28;8824;-61
2022/08/14 07:56:09;;;;;;;;;13.00;10.80;;;;;27.31;40.33;99274.03;5114366;28;8836;-62
2022/08/14 07:58:57;;;;;;;;;15.20;13.60;;;;;27.36;40.69;99282.34;5112163;28;8946;-61
2022/08/14 08:01:25;;;;;;;;;13.40;13.40;;;;;27.41;40.34;99276.13;5094390;28;8820;-63
2022/08/14 08:03:58;;;;;;;;;14.20;13.60;;;;;27.46;40.07;99274.31;5077730;28;8899;-63
2022/08/14 08:06:27;;;;;;;;;17.20;15.00;;;;;27.53;40.43;99272.25;5075149;28;8845;-61
2022/08/14 08:08:55;;;;;;;;;17.00;16.40;;;;;27.61;40.69;99271.84;5074559;28;8818;-61
2022/08/14 08:11:28;;;;;;;;;14.80;14.80;;;;;27.70;40.23;99269.53;5075080;28;9570;-62
2022/08/14 08:14:05;;;;;;;;;15.40;15.00;;;;;27.75;40.24;99262.28;5076177;28;8834;-62
2022/08/14 08:16:37;;;;;;;;;20.60;18.60;;;;;27.83;40.53;99258.31;5094461;28;8944;-60
2022/08/14 08:19:09;;;;;;;;;18.40;16.20;;;;;27.88;40.37;99255.63;5097318;28;8880;-62
2022/08/14 08:21:40;;;;;;;;;18.20;16.00;;;;;27.94;40.36;99247.25;5098523;28;8851;-62
2022/08/14 08:24:14;;;;;;;;;17.20;15.80;;;;;27.99;40.59;99241.03;5098943;28;8840;-61
2022/08/14 08:26:47;;;;;;;;;16.20;15.00;;;;;28.05;40.58;99238.09;5096808;28;8873;-62
2022/08/14 08:29:17;;;;;;;;;18.00;17.60;;;;;28.15;40.04;99235.50;5098092;28;8911;-61
2022/08/14 08:31:48;;;;;;;;;17.20;16.20;;;;;28.22;40.19;99233.41;5097612;28;8949;-62
2022/08/14 08:34:18;;;;;;;;;18.80;16.00;;;;;28.29;40.07;99236.81;5097454;28;8842;-61
2022/08/14 08:36:50;;;;;;;;;18.20;17.00;;;;;28.32;39.84;99232.75;5130584;27;8822;-61
2022/08/14 08:39:19;;;;;;;;;18.80;18.40;;;;;28.40;40.11;99230.44;5138796;27;8810;-62
2022/08/14 08:41:49;;;;;;;;;19.00;16.80;;;;;28.49;39.79;99226.16;5137769;27;8839;-62
2022/08/14 08:44:20;;;;;;;;;14.40;12.60;;;;;28.59;39.47;99223.53;5139297;27;8836;-62
2022/08/14 08:47:04;;;;;;;;;15.40;14.40;;;;;28.67;40.05;99220.34;5134403;27;8832;-61
2022/08/14 08:49:32;;;;;;;;;16.80;16.40;;;;;28.79;39.69;99221.06;5121415;27;8808;-61
2022/08/14 08:52:08;;;;;;;;;17.80;16.00;;;;;28.91;39.60;99221.72;5117837;28;8808;-61
2022/08/14 08:54:52;;;;;;;;;16.80;15.60;;;;;29.02;39.39;99218.06;5126375;27;8805;-61
2022/08/14 08:57:20;;;;;;;;;15.60;15.60;;;;;29.09;39.21;99218.69;5137096;27;8818;-62
2022/08/14 08:59:50;;;;;;;;;16.80;13.40;;;;;29.17;39.23;99220.13;5138008;27;8825;-65
2022/08/14 09:02:25;;;;;;;;;17.20;16.40;;;;;29.28;38.85;99208.16;5118995;27;8875;-61
2022/08/14 09:05:03;;;;;;;;;13.20;12.20;;;;;29.40;38.87;99217.88;5117974;28;8824;-62
2022/08/14 09:07:31;;;;;;;;;17.20;16.60;;;;;29.52;38.69;99212.25;5126886;27;9583;-62
2022/08/14 09:10:00;;;;;;;;;19.00;17.00;;;;;29.64;38.71;99211.00;5138695;27;8856;-61
2022/08/14 09:12:28;;;;;;;;;14.00;12.40;;;;;29.73;38.80;99217.66;5138085;27;8918;-61
2022/08/14 09:14:59;;;;;;;;;17.60;16.40;;;;;29.79;38.38;99216.59;5138330;27;8910;-61
2022/08/14 09:17:26;;;;;;;;;13.20;12.40;;;;;29.84;38.79;99207.56;5131063;27;8840;-62
2022/08/14 09:19:54;;;;;;;;;12.60;12.20;;;;;29.91;38.06;99211.75;5117695;27;8828;-61
2022/08/14 09:22:22;;;;;;;;;19.00;18.00;;;;;30.00;38.57;99218.41;5125012;27;8809;-61
2022/08/14 09:25:03;;;;;;;;;17.80;15.60;;;;;30.09;38.08;99208.59;5125235;27;8892;-61
2022/08/14 09:27:33;;;;;;;;;17.00;15.20;;;;;30.21;38.26;99198.25;5121278;27;8822;-62
2022/08/14 09:30:01;;;;;;;;;16.40;15.60;;;;;30.36;38.27;99200.22;5136252;27;8859;-61
2022/08/14 09:32:49;;;;;;;;;14.60;13.00;;;;;30.46;37.70;99194.78;5135934;27;8849;-63
2022/08/14 09:35:26;;;;;;;;;14.80;14.80;;;;;30.57;37.35;99196.50;5116294;27;8988;-61
2022/08/14 09:37:55;;;;;;;;;17.00;16.60;;;;;30.70;37.83;99204.28;5096647;28;8903;-61
2022/08/14 09:40:23;;;;;;;;;16.60;16.20;;;;;30.82;37.48;99197.44;5098697;28;8821;-62
2022/08/14 09:42:55;;;;;;;;;13.20;12.60;;;;;30.98;37.35;99201.88;5097155;28;9506;-61
2022/08/14 09:45:23;;;;;;;;;17.60;16.80;;;;;31.18;36.76;99193.72;5097355;28;8850;-61
2022/08/14 09:47:56;;;;;;;;;18.00;15.60;;;;;31.50;36.75;99197.03;5097870;28;8895;-62
2022/08/14 09:50:26;;;;;;;;;14.80;13.60;;;;;31.90;36.00;99181.34;5098235;28;8849;-61
2022/08/14 09:52:54;;;;;;;;;17.80;14.80;;;;;32.44;35.56;99175.97;5097018;28;8807;-61
2022/08/14 09:55:24;;;;;;;;;14.80;14.00;;;;;32.98;35.11;99174.06;5096739;28;8846;-62
2022/08/14 09:57:54;;;;;;;;;13.80;13.00;;;;;33.49;34.30;99165.19;5096598;28;8802;-63
2022/08/14 10:00:21;;;;;;;;;16.00;15.00;;;;;34.10;33.51;99169.03;5096236;28;8846;-61
2022/08/14 10:03:01;;;;;;;;;14.40;13.80;;;;;34.62;32.90;99166.22;5096201;28;8956;-61
2022/08/14 10:05:33;;;;;;;;;13.00;12.40;;;;;35.09;32.81;99170.88;5096657;28;8826;-61
2022/08/14 10:08:04;;;;;;;;;14.40;13.60;;;;;35.52;31.94;99159.41;5111273;28;8825;-63
2022/08/14 10:10:42;;;;;;;;;16.40;14.60;;;;;35.91;31.76;99150.69;5102560;28;8812;-62
2022/08/14 10:13:18;;;;;;;;;11.60;11.60;;;;;36.31;31.02;99148.81;5104498;28;8907;-63
2022/08/14 10:15:47;;;;;;;;;16.20;15.00;;;;;36.53;31.35;99148.06;5096641;28;8829;-62
2022/08/14 10:18:17;;;;;;;;;13.00;12.60;;;;;36.78;30.84;99147.59;5096243;28;8830;-62
2022/08/14 10:20:45;;;;;;;;;14.40;14.00;;;;;36.98;30.87;99141.53;5097290;28;9498;-62
2022/08/14 10:23:16;;;;;;;;;10.20;10.00;;;;;37.25;30.32;99135.94;5095521;28;8910;-62
2022/08/14 10:25:45;;;;;;;;;11.20;11.20;;;;;37.60;30.21;99137.84;5095164;28;8806;-62
2022/08/14 10:28:14;;;;;;;;;15.80;12.60;;;;;37.92;29.60;99130.03;5106964;28;8812;-63
2022/08/14 10:31:02;;;;;;;;;13.00;13.00;;;;;38.34;28.72;99114.66;5116268;28;8844;-62
2022/08/14 10:33:30;;;;;;;;;11.00;10.80;;;;;38.61;29.03;99103.31;5102352;28;8827;-62
2022/08/14 10:35:59;;;;;;;;;13.80;13.20;;;;;38.88;28.46;99106.66;5125110;27;8826;-62
2022/08/14 10:38:30;;;;;;;;;13.80;12.80;;;;;39.12;28.43;99108.97;5124737;27;8920;-62
2022/08/14 10:40:58;;;;;;;;;14.80;13.40;;;;;39.28;28.36;99105.38;5115861;28;8892;-61
2022/08/14 10:43:29;;;;;;;;;14.00;13.40;;;;;39.49;28.57;99094.38;5116027;28;8850;-62
2022/08/14 10:46:00;;;;;;;;;12.60;11.60;;;;;39.65;28.16;99095.47;5116687;28;8852;-67
2022/08/14 10:48:50;;;;;;;;;13.00;12.80;;;;;39.73;27.70;99092.69;5115299;28;8848;-62
2022/08/14 10:51:21;;;;;;;;;15.20;13.80;;;;;39.38;28.00;99091.09;5131092;27;8834;-62
2022/08/14 10:53:49;;;;;;;;;13.00;12.80;;;;;39.54;28.28;99092.22;5135674;27;8996;-62
2022/08/14 10:56:23;;;;;;;;;13.40;12.60;;;;;39.78;27.30;99083.31;5136202;27;8821;-62
2022/08/14 10:59:01;;;;;;;;;15.00;14.40;;;;;39.22;28.42;99089.91;5136168;27;8833;-61
2022/08/14 11:01:29;;;;;;;;;13.40;13.20;;;;;38.47;29.25;99094.28;5136095;27;8861;-62
2022/08/14 11:03:59;;;;;;;;;14.00;11.00;;;;;38.64;28.43;99086.78;5135008;27;8833;-62
2022/08/14 11:06:27;;;;;;;;;11.40;11.40;;;;;38.85;28.33;99090.59;5124410;27;8853;-62
2022/08/14 11:08:55;;;;;;;;;12.20;11.40;;;;;38.93;28.41;99086.16;5135488;27;8948;-62
2022/08/14 11:11:24;;;;;;;;;13.80;13.60;;;;;39.08;28.24;99092.09;5123817;27;8978;-62
2022/08/14 11:14:02;;;;;;;;;14.40;13.40;;;;;39.27;27.63;99077.84;5132658;27;9479;-62
2022/08/14 11:16:30;;;;;;;;;11.20;11.00;;;;;39.59;27.34;99078.06;5135737;27;8842;-62
2022/08/14 11:18:58;;;;;;;;;9.20;8.60;;;;;38.94;27.95;99077.50;5135430;27;8822;-65
2022/08/14 11:21:26;;;;;;;;;11.40;10.40;;;;;38.42;29.43;99070.19;5122580;27;8941;-62
2022/08/14 11:24:00;;;;;;;;;15.20;14.20;;;;;38.59;28.99;99069.41;5114477;28;8928;-63
2022/08/14 11:26:48;;;;;;;;;12.80;12.60;;;;;39.37;27.63;99061.56;5117385;27;8849;-62
2022/08/14 11:29:20;;;;;;;;;12.20;11.00;;;;;39.83;27.80;99064.44;5135752;27;8829;-63
2022/08/14 11:31:51;;;;;;;;;13.80;12.60;;;;;39.79;27.49;99062.63;5132397;27;8910;-62
2022/08/14 11:34:19;;;;;;;;;11.20;10.40;;;;;39.89;27.65;99067.84;5134760;27;8828;-62
2022/08/14 11:37:00;;;;;;;;;12.80;11.00;;;;;40.15;26.55;99052.66;5115397;28;8824;-63
2022/08/14 11:39:48;;;;;;;;;14.00;12.60;;;;;40.63;26.52;99052.22;5128345;27;9625;-62
2022/08/14 11:42:17;;;;;;;;;12.00;12.00;;;;;41.24;26.25;99048.59;5134981;27;8801;-62
2022/08/14 11:45:05;;;;;;;;;11.80;11.80;;;;;41.82;24.94;99040.72;5135297;27;8865;-62
2022/08/14 11:47:44;;;;;;;;;11.60;10.80;;;;;42.23;25.23;99032.13;5134549;27;8822;-62
2022/08/14 11:50:31;;;;;;;;;10.80;10.80;;;;;42.53;24.61;99030.72;5139791;27;8849;-62
2022/08/14 11:53:04;;;;;;;;;13.80;13.20;;;;;42.76;24.46;99027.03;5139328;27;8814;-63
2022/08/14 11:55:33;;;;;;;;;13.00;12.60;;;;;42.92;23.94;99036.38;5137774;27;8844;-63
2022/08/14 11:58:02;;;;;;;;;12.00;11.80;;;;;43.07;23.96;99032.81;5139439;27;8897;-62
2022/08/14 12:00:32;;;;;;;;;12.00;10.40;;;;;42.54;24.61;99029.56;5130105;27;8824;-62
2022/08/14 12:03:06;;;;;;;;;13.00;12.20;;;;;41.36;25.89;99035.50;5119532;28;8830;-62
2022/08/14 12:05:38;;;;;;;;;6.00;6.00;;;;;40.36;27.23;99035.94;5131458;27;8833;-62